sensor_id;sensor_type;location;lat;lon;timestamp;P1;durP1;ratioP1;P2;durP2;ratioP2
26690;SDS011;14307;51.718;8.938;2022-11-21T00:00:48;44.90;;;29.65;;
26690;SDS011;14307;51.718;8.938;2022-11-21T00:03:17;60.13;;;34.33;;
26690;SDS011;14307;51.718;8.938;2022-11-21T00:05:44;73.25;;;38.35;;
26690;SDS011;14307;51.718;8.938;2022-11-21T00:08:13;78.93;;;40.33;;
26690;SDS011;14307;51.718;8.938;2022-11-21T00:10:42;82.28;;;40.38;;
26690;SDS011;14307;51.718;8.938;2022-11-21T00:13:27;65.72;;;36.08;;
26690;SDS011;14307;51.718;8.938;2022-11-21T00:15:54;69.18;;;36.08;;
26690;SDS011;14307;51.718;8.938;2022-11-21T00:18:21;68.22;;;34.55;;
26690;SDS011;14307;51.718;8.938;2022-11-21T00:20:47;70.72;;;35.83;;
26690;SDS011;14307;51.718;8.938;2022-11-21T00:23:14;76.90;;;37.05;;
26690;SDS011;14307;51.718;8.938;2022-11-21T00:25:41;69.20;;;34.03;;
26690;SDS011;14307;51.718;8.938;2022-11-21T00:28:07;76.93;;;35.97;;
26690;SDS011;14307;51.718;8.938;2022-11-21T00:30:34;94.70;;;37.28;;
26690;SDS011;14307;51.718;8.938;2022-11-21T00:33:01;61.20;;;31.90;;
26690;SDS011;14307;51.718;8.938;2022-11-21T00:35:27;48.95;;;28.63;;
26690;SDS011;14307;51.718;8.938;2022-11-21T00:37:56;48.53;;;27.20;;
26690;SDS011;14307;51.718;8.938;2022-11-21T00:40:22;53.53;;;28.95;;
26690;SDS011;14307;51.718;8.938;2022-11-21T00:42:49;45.30;;;27.60;;
26690;SDS011;14307;51.718;8.938;2022-11-21T00:45:16;49.95;;;27.85;;
26690;SDS011;14307;51.718;8.938;2022-11-21T00:47:49;47.10;;;28.33;;
26690;SDS011;14307;51.718;8.938;2022-11-21T00:50:16;46.22;;;28.40;;
26690;SDS011;14307;51.718;8.938;2022-11-21T00:52:43;47.50;;;29.10;;
26690;SDS011;14307;51.718;8.938;2022-11-21T00:55:09;49.28;;;28.83;;
26690;SDS011;14307;51.718;8.938;2022-11-21T00:57:36;54.85;;;29.75;;
26690;SDS011;14307;51.718;8.938;2022-11-21T01:00:03;51.20;;;29.85;;
26690;SDS011;14307;51.718;8.938;2022-11-21T01:02:31;56.17;;;32.00;;
26690;SDS011;14307;51.718;8.938;2022-11-21T01:04:58;59.28;;;32.97;;
26690;SDS011;14307;51.718;8.938;2022-11-21T01:07:24;59.45;;;33.45;;
26690;SDS011;14307;51.718;8.938;2022-11-21T01:09:51;117.55;;;36.80;;
26690;SDS011;14307;51.718;8.938;2022-11-21T01:12:18;65.18;;;34.33;;
26690;SDS011;14307;51.718;8.938;2022-11-21T01:14:44;60.35;;;32.67;;
26690;SDS011;14307;51.718;8.938;2022-11-21T01:17:11;67.30;;;35.65;;
26690;SDS011;14307;51.718;8.938;2022-11-21T01:19:38;60.10;;;33.05;;
26690;SDS011;14307;51.718;8.938;2022-11-21T01:22:04;57.35;;;32.92;;
26690;SDS011;14307;51.718;8.938;2022-11-21T01:24:33;58.50;;;33.72;;
26690;SDS011;14307;51.718;8.938;2022-11-21T01:27:00;56.58;;;33.92;;
26690;SDS011;14307;51.718;8.938;2022-11-21T01:29:27;58.00;;;33.25;;
26690;SDS011;14307;51.718;8.938;2022-11-21T01:31:53;62.08;;;36.40;;
26690;SDS011;14307;51.718;8.938;2022-11-21T01:34:20;55.05;;;33.88;;
26690;SDS011;14307;51.718;8.938;2022-11-21T01:36:47;56.38;;;36.53;;
26690;SDS011;14307;51.718;8.938;2022-11-21T01:39:14;60.20;;;35.92;;
26690;SDS011;14307;51.718;8.938;2022-11-21T01:41:42;57.78;;;35.58;;
26690;SDS011;14307;51.718;8.938;2022-11-21T01:44:23;58.70;;;35.13;;
26690;SDS011;14307;51.718;8.938;2022-11-21T01:46:52;71.00;;;38.65;;
26690;SDS011;14307;51.718;8.938;2022-11-21T01:51:51;60.85;;;37.88;;
26690;SDS011;14307;51.718;8.938;2022-11-21T01:54:26;59.13;;;35.92;;
26690;SDS011;14307;51.718;8.938;2022-11-21T02:00:12;65.10;;;38.17;;
26690;SDS011;14307;51.718;8.938;2022-11-21T02:02:47;62.55;;;37.20;;
26690;SDS011;14307;51.718;8.938;2022-11-21T02:05:19;67.38;;;38.80;;
26690;SDS011;14307;51.718;8.938;2022-11-21T02:07:50;60.38;;;37.80;;
26690;SDS011;14307;51.718;8.938;2022-11-21T02:10:20;65.13;;;39.03;;
26690;SDS011;14307;51.718;8.938;2022-11-21T02:12:49;69.85;;;38.72;;
26690;SDS011;14307;51.718;8.938;2022-11-21T02:15:17;62.22;;;38.78;;
26690;SDS011;14307;51.718;8.938;2022-11-21T02:17:45;71.88;;;40.53;;
26690;SDS011;14307;51.718;8.938;2022-11-21T02:20:13;67.35;;;39.55;;
26690;SDS011;14307;51.718;8.938;2022-11-21T02:25:34;70.82;;;43.00;;
26690;SDS011;14307;51.718;8.938;2022-11-21T02:28:17;68.88;;;40.10;;
26690;SDS011;14307;51.718;8.938;2022-11-21T02:30:46;68.35;;;41.47;;
26690;SDS011;14307;51.718;8.938;2022-11-21T02:33:13;73.55;;;42.42;;
26690;SDS011;14307;51.718;8.938;2022-11-21T02:35:40;79.38;;;44.90;;
26690;SDS011;14307;51.718;8.938;2022-11-21T02:40:38;77.82;;;42.97;;
26690;SDS011;14307;51.718;8.938;2022-11-21T02:43:16;82.43;;;46.97;;
26690;SDS011;14307;51.718;8.938;2022-11-21T02:45:46;89.40;;;45.80;;
26690;SDS011;14307;51.718;8.938;2022-11-21T02:48:13;94.32;;;48.53;;
26690;SDS011;14307;51.718;8.938;2022-11-21T02:50:44;86.47;;;48.58;;
26690;SDS011;14307;51.718;8.938;2022-11-21T02:53:13;102.35;;;51.05;;
26690;SDS011;14307;51.718;8.938;2022-11-21T02:55:41;90.50;;;47.38;;
26690;SDS011;14307;51.718;8.938;2022-11-21T02:58:08;89.65;;;46.67;;
26690;SDS011;14307;51.718;8.938;2022-11-21T03:00:37;84.90;;;46.10;;
26690;SDS011;14307;51.718;8.938;2022-11-21T03:03:06;96.88;;;48.75;;
26690;SDS011;14307;51.718;8.938;2022-11-21T03:05:33;101.05;;;47.20;;
26690;SDS011;14307;51.718;8.938;2022-11-21T03:08:00;95.18;;;48.00;;
26690;SDS011;14307;51.718;8.938;2022-11-21T03:10:27;97.93;;;46.67;;
26690;SDS011;14307;51.718;8.938;2022-11-21T03:12:54;96.82;;;45.45;;
26690;SDS011;14307;51.718;8.938;2022-11-21T03:15:30;83.75;;;40.28;;
26690;SDS011;14307;51.718;8.938;2022-11-21T03:17:59;89.53;;;39.78;;
26690;SDS011;14307;51.718;8.938;2022-11-21T03:20:28;77.07;;;38.75;;
26690;SDS011;14307;51.718;8.938;2022-11-21T03:22:59;79.00;;;38.10;;
26690;SDS011;14307;51.718;8.938;2022-11-21T03:25:26;78.65;;;37.80;;
26690;SDS011;14307;51.718;8.938;2022-11-21T03:27:53;71.15;;;35.75;;
26690;SDS011;14307;51.718;8.938;2022-11-21T03:30:20;70.70;;;33.78;;
26690;SDS011;14307;51.718;8.938;2022-11-21T03:32:48;76.57;;;38.63;;
26690;SDS011;14307;51.718;8.938;2022-11-21T03:35:15;73.63;;;36.05;;
26690;SDS011;14307;51.718;8.938;2022-11-21T03:37:42;63.33;;;33.03;;
26690;SDS011;14307;51.718;8.938;2022-11-21T03:40:09;68.47;;;33.58;;
26690;SDS011;14307;51.718;8.938;2022-11-21T03:42:36;78.82;;;33.55;;
26690;SDS011;14307;51.718;8.938;2022-11-21T03:45:03;80.20;;;33.15;;
26690;SDS011;14307;51.718;8.938;2022-11-21T03:47:30;80.72;;;32.17;;
26690;SDS011;14307;51.718;8.938;2022-11-21T03:49:57;74.35;;;32.25;;
26690;SDS011;14307;51.718;8.938;2022-11-21T03:52:24;82.50;;;32.65;;
26690;SDS011;14307;51.718;8.938;2022-11-21T03:54:51;86.47;;;35.08;;
26690;SDS011;14307;51.718;8.938;2022-11-21T03:57:17;93.15;;;34.92;;
26690;SDS011;14307;51.718;8.938;2022-11-21T03:59:44;97.55;;;34.80;;
26690;SDS011;14307;51.718;8.938;2022-11-21T04:02:11;102.63;;;36.25;;
26690;SDS011;14307;51.718;8.938;2022-11-21T04:04:37;136.43;;;39.28;;
26690;SDS011;14307;51.718;8.938;2022-11-21T04:07:06;122.50;;;38.38;;
26690;SDS011;14307;51.718;8.938;2022-11-21T04:09:33;176.85;;;42.00;;
26690;SDS011;14307;51.718;8.938;2022-11-21T04:12:00;124.15;;;40.75;;
26690;SDS011;14307;51.718;8.938;2022-11-21T04:14:33;184.48;;;42.97;;
26690;SDS011;14307;51.718;8.938;2022-11-21T04:17:00;286.10;;;53.08;;
26690;SDS011;14307;51.718;8.938;2022-11-21T04:19:27;162.88;;;46.80;;
26690;SDS011;14307;51.718;8.938;2022-11-21T04:21:53;536.70;;;70.55;;
26690;SDS011;14307;51.718;8.938;2022-11-21T04:24:20;574.03;;;86.47;;
26690;SDS011;14307;51.718;8.938;2022-11-21T04:26:47;795.15;;;108.63;;
26690;SDS011;14307;51.718;8.938;2022-11-21T04:29:13;559.58;;;77.10;;
26690;SDS011;14307;51.718;8.938;2022-11-21T04:31:40;815.78;;;103.45;;
26690;SDS011;14307;51.718;8.938;2022-11-21T04:34:07;761.10;;;102.15;;
26690;SDS011;14307;51.718;8.938;2022-11-21T04:36:33;790.75;;;102.00;;
26690;SDS011;14307;51.718;8.938;2022-11-21T04:39:00;618.25;;;84.18;;
26690;SDS011;14307;51.718;8.938;2022-11-21T04:41:27;581.45;;;78.38;;
26690;SDS011;14307;51.718;8.938;2022-11-21T04:43:53;766.70;;;91.45;;
26690;SDS011;14307;51.718;8.938;2022-11-21T04:46:20;903.95;;;120.75;;
26690;SDS011;14307;51.718;8.938;2022-11-21T04:48:47;983.65;;;115.15;;
26690;SDS011;14307;51.718;8.938;2022-11-21T04:51:13;939.33;;;111.53;;
26690;SDS011;14307;51.718;8.938;2022-11-21T04:53:40;822.55;;;111.82;;
26690;SDS011;14307;51.718;8.938;2022-11-21T04:56:08;811.13;;;96.85;;
26690;SDS011;14307;51.718;8.938;2022-11-21T04:58:35;916.90;;;115.50;;
26690;SDS011;14307;51.718;8.938;2022-11-21T05:01:05;843.95;;;113.97;;
26690;SDS011;14307;51.718;8.938;2022-11-21T05:03:34;856.72;;;93.35;;
26690;SDS011;14307;51.718;8.938;2022-11-21T05:06:01;722.15;;;84.38;;
26690;SDS011;14307;51.718;8.938;2022-11-21T05:08:28;859.85;;;97.13;;
26690;SDS011;14307;51.718;8.938;2022-11-21T05:10:55;934.47;;;115.05;;
26690;SDS011;14307;51.718;8.938;2022-11-21T05:13:40;908.00;;;110.53;;
26690;SDS011;14307;51.718;8.938;2022-11-21T05:16:07;765.40;;;99.65;;
26690;SDS011;14307;51.718;8.938;2022-11-21T05:18:34;573.97;;;76.20;;
26690;SDS011;14307;51.718;8.938;2022-11-21T05:21:01;728.28;;;94.68;;
26690;SDS011;14307;51.718;8.938;2022-11-21T05:23:28;671.33;;;90.70;;
26690;SDS011;14307;51.718;8.938;2022-11-21T05:25:55;693.67;;;92.80;;
26690;SDS011;14307;51.718;8.938;2022-11-21T05:28:21;722.85;;;92.53;;
26690;SDS011;14307;51.718;8.938;2022-11-21T05:30:48;583.97;;;81.72;;
26690;SDS011;14307;51.718;8.938;2022-11-21T05:33:15;474.55;;;74.00;;
26690;SDS011;14307;51.718;8.938;2022-11-21T05:35:42;828.65;;;104.30;;
26690;SDS011;14307;51.718;8.938;2022-11-21T05:38:09;851.33;;;106.03;;
26690;SDS011;14307;51.718;8.938;2022-11-21T05:40:36;764.72;;;96.82;;
26690;SDS011;14307;51.718;8.938;2022-11-21T05:43:02;817.28;;;102.82;;
26690;SDS011;14307;51.718;8.938;2022-11-21T05:45:48;704.17;;;99.95;;
26690;SDS011;14307;51.718;8.938;2022-11-21T05:48:15;599.30;;;80.95;;
26690;SDS011;14307;51.718;8.938;2022-11-21T05:50:45;663.55;;;94.20;;
26690;SDS011;14307;51.718;8.938;2022-11-21T05:53:13;852.08;;;110.00;;
26690;SDS011;14307;51.718;8.938;2022-11-21T05:55:40;697.83;;;91.72;;
26690;SDS011;14307;51.718;8.938;2022-11-21T05:58:07;804.28;;;105.03;;
26690;SDS011;14307;51.718;8.938;2022-11-21T06:00:35;576.85;;;79.78;;
26690;SDS011;14307;51.718;8.938;2022-11-21T06:03:03;681.15;;;89.35;;
26690;SDS011;14307;51.718;8.938;2022-11-21T06:05:50;684.28;;;86.07;;
26690;SDS011;14307;51.718;8.938;2022-11-21T06:08:17;686.15;;;90.20;;
26690;SDS011;14307;51.718;8.938;2022-11-21T06:10:44;768.25;;;94.25;;
26690;SDS011;14307;51.718;8.938;2022-11-21T06:13:11;741.08;;;89.85;;
26690;SDS011;14307;51.718;8.938;2022-11-21T06:15:54;574.78;;;78.78;;
26690;SDS011;14307;51.718;8.938;2022-11-21T06:18:25;697.45;;;89.45;;
26690;SDS011;14307;51.718;8.938;2022-11-21T06:20:52;607.90;;;78.28;;
26690;SDS011;14307;51.718;8.938;2022-11-21T06:23:19;713.60;;;81.63;;
26690;SDS011;14307;51.718;8.938;2022-11-21T06:25:46;679.80;;;85.95;;
26690;SDS011;14307;51.718;8.938;2022-11-21T06:28:13;641.97;;;78.35;;
26690;SDS011;14307;51.718;8.938;2022-11-21T06:30:40;505.17;;;69.70;;
26690;SDS011;14307;51.718;8.938;2022-11-21T06:33:06;802.90;;;97.88;;
26690;SDS011;14307;51.718;8.938;2022-11-21T06:35:36;585.65;;;71.78;;
26690;SDS011;14307;51.718;8.938;2022-11-21T06:38:03;747.20;;;102.50;;
26690;SDS011;14307;51.718;8.938;2022-11-21T06:40:30;504.63;;;74.63;;
26690;SDS011;14307;51.718;8.938;2022-11-21T06:42:57;647.45;;;81.45;;
26690;SDS011;14307;51.718;8.938;2022-11-21T06:45:23;635.63;;;83.13;;
26690;SDS011;14307;51.718;8.938;2022-11-21T06:47:50;590.08;;;83.82;;
26690;SDS011;14307;51.718;8.938;2022-11-21T06:50:17;747.65;;;91.43;;
26690;SDS011;14307;51.718;8.938;2022-11-21T06:52:43;613.58;;;79.40;;
26690;SDS011;14307;51.718;8.938;2022-11-21T06:55:10;520.95;;;72.97;;
26690;SDS011;14307;51.718;8.938;2022-11-21T06:57:37;519.20;;;68.88;;
26690;SDS011;14307;51.718;8.938;2022-11-21T07:00:04;629.75;;;84.38;;
26690;SDS011;14307;51.718;8.938;2022-11-21T07:02:31;546.33;;;72.50;;
26690;SDS011;14307;51.718;8.938;2022-11-21T07:04:58;374.75;;;61.20;;
26690;SDS011;14307;51.718;8.938;2022-11-21T07:07:25;539.55;;;70.07;;
26690;SDS011;14307;51.718;8.938;2022-11-21T07:09:51;637.70;;;76.40;;
26690;SDS011;14307;51.718;8.938;2022-11-21T07:12:18;566.55;;;72.03;;
26690;SDS011;14307;51.718;8.938;2022-11-21T07:15:17;531.10;;;66.18;;
26690;SDS011;14307;51.718;8.938;2022-11-21T07:17:44;593.00;;;77.90;;
26690;SDS011;14307;51.718;8.938;2022-11-21T07:20:11;509.85;;;67.28;;
26690;SDS011;14307;51.718;8.938;2022-11-21T07:22:38;562.30;;;72.40;;
26690;SDS011;14307;51.718;8.938;2022-11-21T07:25:05;613.22;;;78.25;;
26690;SDS011;14307;51.718;8.938;2022-11-21T07:27:32;532.53;;;71.63;;
26690;SDS011;14307;51.718;8.938;2022-11-21T07:29:59;448.75;;;67.65;;
26690;SDS011;14307;51.718;8.938;2022-11-21T07:32:25;676.50;;;84.10;;
26690;SDS011;14307;51.718;8.938;2022-11-21T07:34:53;467.38;;;67.65;;
26690;SDS011;14307;51.718;8.938;2022-11-21T07:37:19;709.55;;;86.43;;
26690;SDS011;14307;51.718;8.938;2022-11-21T07:39:46;592.75;;;73.03;;
26690;SDS011;14307;51.718;8.938;2022-11-21T07:42:13;567.40;;;75.50;;
26690;SDS011;14307;51.718;8.938;2022-11-21T07:44:40;511.90;;;71.07;;
26690;SDS011;14307;51.718;8.938;2022-11-21T07:47:07;592.45;;;82.05;;
26690;SDS011;14307;51.718;8.938;2022-11-21T07:49:33;829.30;;;104.80;;
26690;SDS011;14307;51.718;8.938;2022-11-21T07:52:03;437.90;;;67.07;;
26690;SDS011;14307;51.718;8.938;2022-11-21T07:54:29;329.00;;;58.28;;
26690;SDS011;14307;51.718;8.938;2022-11-21T07:56:56;465.48;;;68.82;;
26690;SDS011;14307;51.718;8.938;2022-11-21T07:59:23;478.05;;;73.35;;
26690;SDS011;14307;51.718;8.938;2022-11-21T08:01:50;414.15;;;67.80;;
26690;SDS011;14307;51.718;8.938;2022-11-21T08:04:17;326.48;;;61.55;;
26690;SDS011;14307;51.718;8.938;2022-11-21T08:06:44;399.25;;;66.47;;
26690;SDS011;14307;51.718;8.938;2022-11-21T08:09:11;350.95;;;65.90;;
26690;SDS011;14307;51.718;8.938;2022-11-21T08:11:38;524.42;;;82.38;;
26690;SDS011;14307;51.718;8.938;2022-11-21T08:14:04;455.02;;;76.60;;
26690;SDS011;14307;51.718;8.938;2022-11-21T08:16:31;407.88;;;72.40;;
26690;SDS011;14307;51.718;8.938;2022-11-21T08:18:58;268.92;;;60.25;;
26690;SDS011;14307;51.718;8.938;2022-11-21T08:21:25;360.98;;;66.53;;
26690;SDS011;14307;51.718;8.938;2022-11-21T08:23:52;235.95;;;60.30;;
26690;SDS011;14307;51.718;8.938;2022-11-21T08:26:19;290.35;;;65.70;;
26690;SDS011;14307;51.718;8.938;2022-11-21T08:28:46;325.23;;;64.70;;
26690;SDS011;14307;51.718;8.938;2022-11-21T08:31:13;334.33;;;69.50;;
26690;SDS011;14307;51.718;8.938;2022-11-21T08:33:39;398.30;;;75.47;;
26690;SDS011;14307;51.718;8.938;2022-11-21T08:36:06;289.33;;;70.65;;
26690;SDS011;14307;51.718;8.938;2022-11-21T08:38:33;220.65;;;58.28;;
26690;SDS011;14307;51.718;8.938;2022-11-21T08:40:59;221.02;;;63.47;;
26690;SDS011;14307;51.718;8.938;2022-11-21T08:43:45;229.13;;;62.03;;
26690;SDS011;14307;51.718;8.938;2022-11-21T08:46:11;209.85;;;58.22;;
26690;SDS011;14307;51.718;8.938;2022-11-21T08:48:38;226.63;;;59.58;;
26690;SDS011;14307;51.718;8.938;2022-11-21T08:51:05;221.25;;;57.22;;
26690;SDS011;14307;51.718;8.938;2022-11-21T08:53:32;183.93;;;54.28;;
26690;SDS011;14307;51.718;8.938;2022-11-21T08:55:58;180.20;;;56.15;;
26690;SDS011;14307;51.718;8.938;2022-11-21T08:58:29;238.00;;;56.83;;
26690;SDS011;14307;51.718;8.938;2022-11-21T09:00:57;164.38;;;53.15;;
26690;SDS011;14307;51.718;8.938;2022-11-21T09:03:24;183.52;;;55.17;;
26690;SDS011;14307;51.718;8.938;2022-11-21T09:05:56;149.27;;;48.28;;
26690;SDS011;14307;51.718;8.938;2022-11-21T09:08:24;162.38;;;48.53;;
26690;SDS011;14307;51.718;8.938;2022-11-21T09:10:51;158.85;;;54.90;;
26690;SDS011;14307;51.718;8.938;2022-11-21T09:13:18;170.95;;;55.10;;
26690;SDS011;14307;51.718;8.938;2022-11-21T09:15:45;127.97;;;47.97;;
26690;SDS011;14307;51.718;8.938;2022-11-21T09:20:57;128.20;;;44.65;;
26690;SDS011;14307;51.718;8.938;2022-11-21T09:23:24;119.88;;;48.85;;
26690;SDS011;14307;51.718;8.938;2022-11-21T09:25:51;100.13;;;46.50;;
26690;SDS011;14307;51.718;8.938;2022-11-21T09:28:18;90.57;;;45.08;;
26690;SDS011;14307;51.718;8.938;2022-11-21T09:30:45;85.88;;;45.25;;
26690;SDS011;14307;51.718;8.938;2022-11-21T09:33:12;85.95;;;45.65;;
26690;SDS011;14307;51.718;8.938;2022-11-21T09:35:40;79.85;;;44.70;;
26690;SDS011;14307;51.718;8.938;2022-11-21T09:38:06;78.93;;;45.65;;
26690;SDS011;14307;51.718;8.938;2022-11-21T09:40:34;77.15;;;44.53;;
26690;SDS011;14307;51.718;8.938;2022-11-21T09:45:39;90.25;;;51.65;;
26690;SDS011;14307;51.718;8.938;2022-11-21T09:48:12;88.95;;;51.80;;
26690;SDS011;14307;51.718;8.938;2022-11-21T09:50:50;90.75;;;50.97;;
26690;SDS011;14307;51.718;8.938;2022-11-21T09:56:03;85.05;;;52.38;;
26690;SDS011;14307;51.718;8.938;2022-11-21T10:01:04;74.10;;;50.20;;
26690;SDS011;14307;51.718;8.938;2022-11-21T10:03:41;75.15;;;49.10;;
26690;SDS011;14307;51.718;8.938;2022-11-21T10:06:18;69.03;;;48.75;;
26690;SDS011;14307;51.718;8.938;2022-11-21T10:26:21;72.00;;;62.45;;
26690;SDS011;14307;51.718;8.938;2022-11-21T10:29:01;49.33;;;44.20;;
26690;SDS011;14307;51.718;8.938;2022-11-21T10:31:32;43.92;;;39.50;;
26690;SDS011;14307;51.718;8.938;2022-11-21T10:34:08;44.60;;;39.85;;
26690;SDS011;14307;51.718;8.938;2022-11-21T10:36:42;39.38;;;35.33;;
26690;SDS011;14307;51.718;8.938;2022-11-21T10:42:01;52.45;;;47.70;;
26690;SDS011;14307;51.718;8.938;2022-11-21T10:44:37;51.58;;;46.40;;
26690;SDS011;14307;51.718;8.938;2022-11-21T10:47:24;56.80;;;51.22;;
26690;SDS011;14307;51.718;8.938;2022-11-21T10:50:32;63.90;;;57.22;;
26690;SDS011;14307;51.718;8.938;2022-11-21T10:58:40;51.90;;;46.17;;
26690;SDS011;14307;51.718;8.938;2022-11-21T11:01:25;43.92;;;39.38;;
26690;SDS011;14307;51.718;8.938;2022-11-21T11:04:11;62.83;;;47.22;;
26690;SDS011;14307;51.718;8.938;2022-11-21T11:07:18;82.80;;;53.97;;
26690;SDS011;14307;51.718;8.938;2022-11-21T11:09:48;56.90;;;50.33;;
26690;SDS011;14307;51.718;8.938;2022-11-21T11:12:27;49.20;;;41.83;;
26690;SDS011;14307;51.718;8.938;2022-11-21T11:15:19;65.95;;;50.85;;
26690;SDS011;14307;51.718;8.938;2022-11-21T11:17:54;117.47;;;88.40;;
26690;SDS011;14307;51.718;8.938;2022-11-21T11:20:39;52.80;;;38.25;;
26690;SDS011;14307;51.718;8.938;2022-11-21T11:25:56;49.17;;;36.72;;
26690;SDS011;14307;51.718;8.938;2022-11-21T11:30:53;48.40;;;37.58;;
26690;SDS011;14307;51.718;8.938;2022-11-21T11:36:12;57.40;;;45.03;;
26690;SDS011;14307;51.718;8.938;2022-11-21T11:38:42;42.65;;;36.70;;
26690;SDS011;14307;51.718;8.938;2022-11-21T11:41:21;52.42;;;42.70;;
26690;SDS011;14307;51.718;8.938;2022-11-21T11:44:02;51.88;;;39.90;;
26690;SDS011;14307;51.718;8.938;2022-11-21T11:49:48;48.55;;;40.42;;
26690;SDS011;14307;51.718;8.938;2022-11-21T11:55:42;54.88;;;43.67;;
26690;SDS011;14307;51.718;8.938;2022-11-21T11:58:30;52.90;;;42.72;;
26690;SDS011;14307;51.718;8.938;2022-11-21T12:01:00;53.10;;;41.65;;
26690;SDS011;14307;51.718;8.938;2022-11-21T12:06:24;51.03;;;44.50;;
26690;SDS011;14307;51.718;8.938;2022-11-21T12:09:17;49.97;;;41.88;;
26690;SDS011;14307;51.718;8.938;2022-11-21T12:12:03;48.67;;;41.03;;
26690;SDS011;14307;51.718;8.938;2022-11-21T12:23:15;69.13;;;53.75;;
26690;SDS011;14307;51.718;8.938;2022-11-21T12:46:09;67.15;;;43.97;;
26690;SDS011;14307;51.718;8.938;2022-11-21T12:49:00;68.85;;;43.78;;
26690;SDS011;14307;51.718;8.938;2022-11-21T12:52:12;68.55;;;43.03;;
26690;SDS011;14307;51.718;8.938;2022-11-21T12:55:28;65.68;;;41.83;;
26690;SDS011;14307;51.718;8.938;2022-11-21T13:06:18;68.60;;;44.28;;
26690;SDS011;14307;51.718;8.938;2022-11-21T13:08:48;62.72;;;43.00;;
26690;SDS011;14307;51.718;8.938;2022-11-21T13:11:20;65.75;;;42.17;;
26690;SDS011;14307;51.718;8.938;2022-11-21T13:14:27;74.00;;;45.60;;
26690;SDS011;14307;51.718;8.938;2022-11-21T13:17:33;73.43;;;44.42;;
26690;SDS011;14307;51.718;8.938;2022-11-21T13:25:13;100.90;;;64.45;;
26690;SDS011;14307;51.718;8.938;2022-11-21T13:30:45;76.03;;;41.20;;
26690;SDS011;14307;51.718;8.938;2022-11-21T13:36:04;78.65;;;41.72;;
26690;SDS011;14307;51.718;8.938;2022-11-21T13:44:39;65.20;;;39.10;;
26690;SDS011;14307;51.718;8.938;2022-11-21T13:55:30;86.07;;;57.20;;
26690;SDS011;14307;51.718;8.938;2022-11-21T14:06:35;78.05;;;51.15;;
26690;SDS011;14307;51.718;8.938;2022-11-21T14:14:30;70.07;;;43.55;;
26690;SDS011;14307;51.718;8.938;2022-11-21T14:17:13;78.60;;;45.70;;
26690;SDS011;14307;51.718;8.938;2022-11-21T14:20:47;75.38;;;46.42;;
26690;SDS011;14307;51.718;8.938;2022-11-21T14:23:17;70.50;;;44.67;;
26690;SDS011;14307;51.718;8.938;2022-11-21T14:25:53;57.08;;;37.15;;
26690;SDS011;14307;51.718;8.938;2022-11-21T14:28:26;71.20;;;44.05;;
26690;SDS011;14307;51.718;8.938;2022-11-21T14:31:04;83.15;;;56.30;;
26690;SDS011;14307;51.718;8.938;2022-11-21T14:33:36;71.40;;;42.72;;
26690;SDS011;14307;51.718;8.938;2022-11-21T14:38:39;62.75;;;39.45;;
26690;SDS011;14307;51.718;8.938;2022-11-21T14:46:24;70.88;;;39.63;;
26690;SDS011;14307;51.718;8.938;2022-11-21T14:48:52;100.57;;;62.40;;
26690;SDS011;14307;51.718;8.938;2022-11-21T14:51:22;88.22;;;51.72;;
26690;SDS011;14307;51.718;8.938;2022-11-21T14:53:51;78.15;;;43.65;;
26690;SDS011;14307;51.718;8.938;2022-11-21T14:56:25;111.13;;;70.85;;
26690;SDS011;14307;51.718;8.938;2022-11-21T14:58:55;91.13;;;53.75;;
26690;SDS011;14307;51.718;8.938;2022-11-21T15:01:26;77.60;;;42.25;;
26690;SDS011;14307;51.718;8.938;2022-11-21T15:03:58;95.38;;;57.22;;
26690;SDS011;14307;51.718;8.938;2022-11-21T15:06:39;81.68;;;45.55;;
26690;SDS011;14307;51.718;8.938;2022-11-21T15:09:11;156.90;;;103.30;;
26690;SDS011;14307;51.718;8.938;2022-11-21T15:12:00;77.03;;;39.80;;
26690;SDS011;14307;51.718;8.938;2022-11-21T15:17:04;84.10;;;38.25;;
26690;SDS011;14307;51.718;8.938;2022-11-21T15:19:36;123.50;;;62.20;;
26690;SDS011;14307;51.718;8.938;2022-11-21T15:22:03;134.07;;;60.63;;
26690;SDS011;14307;51.718;8.938;2022-11-21T15:24:40;93.07;;;42.83;;
26690;SDS011;14307;51.718;8.938;2022-11-21T15:27:28;121.03;;;68.47;;
26690;SDS011;14307;51.718;8.938;2022-11-21T15:30:18;173.05;;;74.07;;
26690;SDS011;14307;51.718;8.938;2022-11-21T15:33:00;107.13;;;46.75;;
26690;SDS011;14307;51.718;8.938;2022-11-21T15:40:38;142.30;;;38.60;;
26690;SDS011;14307;51.718;8.938;2022-11-21T15:43:11;108.63;;;40.13;;
26690;SDS011;14307;51.718;8.938;2022-11-21T15:48:44;119.07;;;38.88;;
26690;SDS011;14307;51.718;8.938;2022-11-21T15:51:12;145.40;;;61.47;;
26690;SDS011;14307;51.718;8.938;2022-11-21T15:53:40;152.98;;;39.13;;
26690;SDS011;14307;51.718;8.938;2022-11-21T15:56:08;115.03;;;35.90;;
26690;SDS011;14307;51.718;8.938;2022-11-21T15:58:36;129.85;;;39.08;;
26690;SDS011;14307;51.718;8.938;2022-11-21T16:01:03;108.35;;;40.67;;
26690;SDS011;14307;51.718;8.938;2022-11-21T16:03:30;104.53;;;37.70;;
26690;SDS011;14307;51.718;8.938;2022-11-21T16:05:57;134.18;;;43.50;;
26690;SDS011;14307;51.718;8.938;2022-11-21T16:08:24;194.93;;;46.35;;
26690;SDS011;14307;51.718;8.938;2022-11-21T16:10:50;127.18;;;44.33;;
26690;SDS011;14307;51.718;8.938;2022-11-21T16:13:17;134.18;;;45.42;;
26690;SDS011;14307;51.718;8.938;2022-11-21T16:15:43;109.45;;;37.45;;
26690;SDS011;14307;51.718;8.938;2022-11-21T16:18:10;128.32;;;45.10;;
26690;SDS011;14307;51.718;8.938;2022-11-21T16:20:37;164.57;;;46.97;;
26690;SDS011;14307;51.718;8.938;2022-11-21T16:23:03;161.05;;;48.70;;
26690;SDS011;14307;51.718;8.938;2022-11-21T16:25:30;163.77;;;48.25;;
26690;SDS011;14307;51.718;8.938;2022-11-21T16:27:57;208.00;;;53.20;;
26690;SDS011;14307;51.718;8.938;2022-11-21T16:30:29;195.57;;;53.92;;
26690;SDS011;14307;51.718;8.938;2022-11-21T16:32:56;177.38;;;52.15;;
26690;SDS011;14307;51.718;8.938;2022-11-21T16:35:26;204.75;;;50.15;;
26690;SDS011;14307;51.718;8.938;2022-11-21T16:37:53;422.75;;;77.43;;
26690;SDS011;14307;51.718;8.938;2022-11-21T16:40:20;184.23;;;53.33;;
26690;SDS011;14307;51.718;8.938;2022-11-21T16:42:46;160.25;;;44.67;;
26690;SDS011;14307;51.718;8.938;2022-11-21T16:45:13;173.98;;;49.38;;
26690;SDS011;14307;51.718;8.938;2022-11-21T16:47:40;181.50;;;51.28;;
26690;SDS011;14307;51.718;8.938;2022-11-21T16:50:13;190.75;;;50.67;;
26690;SDS011;14307;51.718;8.938;2022-11-21T16:52:40;206.27;;;51.17;;
26690;SDS011;14307;51.718;8.938;2022-11-21T16:55:07;189.93;;;56.85;;
26690;SDS011;14307;51.718;8.938;2022-11-21T16:57:34;286.30;;;57.58;;
26690;SDS011;14307;51.718;8.938;2022-11-21T17:00:01;232.93;;;52.08;;
26690;SDS011;14307;51.718;8.938;2022-11-21T17:02:28;300.40;;;68.03;;
26690;SDS011;14307;51.718;8.938;2022-11-21T17:04:55;319.50;;;83.40;;
26690;SDS011;14307;51.718;8.938;2022-11-21T17:07:22;293.17;;;75.72;;
26690;SDS011;14307;51.718;8.938;2022-11-21T17:09:49;240.40;;;48.13;;
26690;SDS011;14307;51.718;8.938;2022-11-21T17:12:17;341.48;;;73.10;;